createdAt,value
2023-08-16T00:00:35.470Z,99890.59
2023-08-16T00:03:02.078Z,99887.09
2023-08-16T00:05:30.278Z,99887.97
2023-08-16T00:07:56.682Z,99860.31
2023-08-16T00:10:23.114Z,99888.28
2023-08-16T00:12:49.507Z,99888.28
2023-08-16T00:15:16.108Z,99887.97
2023-08-16T00:17:42.555Z,99884.09
2023-08-16T00:20:09.719Z,99887.44
2023-08-16T00:22:36.180Z,99869.50
2023-08-16T00:25:03.298Z,99862.00
2023-08-16T00:27:30.514Z,99884.59
2023-08-16T00:29:57.037Z,99877.41
2023-08-16T00:32:23.396Z,99873.22
2023-08-16T00:34:49.788Z,99877.56
2023-08-16T00:37:16.363Z,99864.53
2023-08-16T00:39:44.405Z,99859.84
2023-08-16T00:42:11.613Z,99861.16
2023-08-16T00:44:39.897Z,99861.31
2023-08-16T00:47:06.716Z,99858.16
2023-08-16T00:49:33.306Z,99856.50
2023-08-16T00:52:01.997Z,99836.75
2023-08-16T00:54:29.682Z,99854.31
2023-08-16T00:56:59.013Z,99848.31
2023-08-16T00:59:27.702Z,99854.00
2023-08-16T01:01:55.096Z,99854.66
2023-08-16T01:04:21.498Z,99860.88
2023-08-16T01:06:49.158Z,99858.06
2023-08-16T01:09:16.228Z,99866.59
2023-08-16T01:11:52.135Z,99866.91
2023-08-16T01:14:26.138Z,99850.88
2023-08-16T01:16:54.581Z,99864.75
2023-08-16T01:19:33.291Z,99862.25
2023-08-16T01:22:28.929Z,99868.94
2023-08-16T01:25:21.823Z,99870.28
2023-08-16T01:27:49.178Z,99877.31
2023-08-16T01:30:15.907Z,99871.47
2023-08-16T01:32:42.596Z,99882.31
2023-08-16T01:35:09.070Z,99888.53
2023-08-16T01:37:35.942Z,99879.50
2023-08-16T01:40:06.261Z,99883.66
2023-08-16T01:42:52.217Z,99877.63
2023-08-16T01:45:19.807Z,99878.97
2023-08-16T01:47:48.331Z,99890.69
2023-08-16T01:50:15.373Z,99888.03
2023-08-16T01:52:41.953Z,99889.34
2023-08-16T01:55:09.434Z,99869.63
2023-08-16T01:57:35.876Z,99896.72
2023-08-16T02:00:02.349Z,99896.56
2023-08-16T02:02:41.413Z,99897.91
2023-08-16T02:05:08.356Z,99898.72
2023-08-16T02:07:34.708Z,99898.06
2023-08-16T02:10:01.180Z,99883.84
2023-08-16T02:12:27.566Z,99886.00
2023-08-16T02:14:54.019Z,99839.69
2023-08-16T02:17:20.386Z,99894.72
2023-08-16T02:19:46.754Z,99882.84
2023-08-16T02:22:13.832Z,99884.69
2023-08-16T02:24:40.401Z,99893.38
2023-08-16T02:27:06.797Z,99888.00
2023-08-16T02:29:33.153Z,99885.34
2023-08-16T02:31:59.509Z,99891.69
2023-08-16T02:34:25.866Z,99887.69
2023-08-16T02:36:52.251Z,99877.00
2023-08-16T02:39:18.642Z,99885.03
2023-08-16T02:41:45.009Z,99895.41
2023-08-16T02:44:11.368Z,99881.34
2023-08-16T02:46:37.897Z,99880.97
2023-08-16T02:49:04.453Z,99878.00
2023-08-16T02:51:30.844Z,99876.50
2023-08-16T02:53:57.217Z,99881.84
2023-08-16T02:56:23.614Z,99876.31
2023-08-16T02:58:51.049Z,99881.00
2023-08-16T03:01:17.469Z,99882.00
2023-08-16T03:03:43.963Z,99882.00
2023-08-16T03:06:10.335Z,99877.34
2023-08-16T03:08:36.688Z,99885.69
2023-08-16T03:11:03.117Z,99877.66
2023-08-16T03:13:29.751Z,99879.00
2023-08-16T03:15:56.127Z,99879.50
2023-08-16T03:18:22.491Z,99879.50
2023-08-16T03:20:49.028Z,99880.81
2023-08-16T03:23:15.669Z,99882.34
2023-08-16T03:25:42.689Z,99857.94
2023-08-16T03:28:09.123Z,99876.97
2023-08-16T03:30:35.600Z,99851.91
2023-08-16T03:33:03.557Z,99879.16
2023-08-16T03:35:29.914Z,99872.81
2023-08-16T03:37:57.008Z,99875.50
2023-08-16T03:40:25.154Z,99874.81
2023-08-16T03:42:51.513Z,99875.66
2023-08-16T03:45:18.001Z,99875.66
2023-08-16T03:47:44.613Z,99882.50
2023-08-16T03:50:11.004Z,99879.31
2023-08-16T03:52:37.390Z,99877.50
2023-08-16T03:55:06.109Z,99876.50
2023-08-16T03:57:33.526Z,99861.59
2023-08-16T03:59:59.884Z,99870.97
2023-08-16T04:02:26.481Z,99869.63
2023-08-16T04:04:54.760Z,99861.91
2023-08-16T04:07:21.250Z,99859.59
2023-08-16T04:09:47.703Z,99876.00
2023-08-16T04:12:14.078Z,99877.00
2023-08-16T04:14:40.464Z,99887.22
2023-08-16T04:17:06.873Z,99882.00
2023-08-16T04:19:33.362Z,99886.03
2023-08-16T04:21:59.974Z,99888.53
2023-08-16T04:24:26.401Z,99884.34
2023-08-16T04:26:52.752Z,99891.72
2023-08-16T04:29:19.252Z,99890.38
2023-08-16T04:31:46.036Z,99893.41
2023-08-16T04:34:12.835Z,99889.03
2023-08-16T04:36:39.844Z,99894.72
2023-08-16T04:39:06.503Z,99889.72
2023-08-16T04:41:32.888Z,99891.72
2023-08-16T04:43:59.278Z,99902.44
2023-08-16T04:46:28.175Z,99893.06
2023-08-16T04:48:55.881Z,99894.41
2023-08-16T04:51:22.284Z,99906.28
2023-08-16T04:53:50.326Z,99910.47
2023-08-16T04:56:17.071Z,99911.28
2023-08-16T04:58:43.824Z,99936.06
2023-08-16T05:01:10.671Z,99927.88
2023-08-16T05:03:39.082Z,99932.38
2023-08-16T05:06:06.108Z,99930.88
2023-08-16T05:08:32.552Z,99909.63
2023-08-16T05:10:59.376Z,99926.34
2023-08-16T05:13:25.846Z,99918.16
2023-08-16T05:15:52.268Z,99922.50
2023-08-16T05:18:18.816Z,99900.09
2023-08-16T05:20:45.378Z,99901.94
2023-08-16T05:23:11.751Z,99906.09
2023-08-16T05:25:38.851Z,99896.41
2023-08-16T05:28:05.629Z,99905.28
2023-08-16T05:30:32.032Z,99901.25
2023-08-16T05:32:58.504Z,99915.13
2023-08-16T05:35:25.015Z,99916.00
2023-08-16T05:37:55.663Z,99914.31
2023-08-16T05:40:22.094Z,99916.31
2023-08-16T05:42:48.436Z,99917.81
2023-08-16T05:45:14.830Z,99894.25
2023-08-16T05:47:41.273Z,99916.16
2023-08-16T05:50:08.033Z,99918.66
2023-08-16T05:52:34.382Z,99921.84
2023-08-16T05:55:00.743Z,99923.34
2023-08-16T05:57:27.213Z,99940.25
2023-08-16T05:59:53.662Z,99940.94
2023-08-16T06:02:24.076Z,99921.69
2023-08-16T06:04:53.062Z,99944.09
2023-08-16T06:07:19.443Z,99937.22
2023-08-16T06:09:46.236Z,99938.91
2023-08-16T06:12:13.675Z,99942.09
2023-08-16T06:14:40.105Z,99933.56
2023-08-16T06:17:06.529Z,99937.41
2023-08-16T06:19:32.956Z,99933.22
2023-08-16T06:22:00.604Z,99920.50
2023-08-16T06:24:27.220Z,99927.84
2023-08-16T06:26:53.626Z,99929.34
2023-08-16T06:29:19.998Z,99931.38
2023-08-16T06:31:47.996Z,99932.03
2023-08-16T06:34:14.360Z,99923.69
2023-08-16T06:36:41.412Z,99920.16
2023-08-16T06:39:07.761Z,99928.53
2023-08-16T06:41:34.115Z,99917.00
2023-08-16T06:44:00.520Z,99919.13
2023-08-16T06:46:26.977Z,99915.94
2023-08-16T06:48:53.900Z,99930.16
2023-08-16T06:51:20.308Z,99918.44
2023-08-16T06:53:46.995Z,99931.81
2023-08-16T06:56:13.439Z,99932.81
2023-08-16T06:58:42.249Z,99917.09
2023-08-16T07:01:09.353Z,99943.22
2023-08-16T07:03:36.847Z,99934.19
2023-08-16T07:06:03.298Z,99935.69
2023-08-16T07:08:29.713Z,99935.34
2023-08-16T07:10:56.083Z,99935.16
2023-08-16T07:13:22.659Z,99923.78
2023-08-16T07:15:49.078Z,99912.06
2023-08-16T07:18:15.572Z,99901.19
2023-08-16T07:20:41.954Z,99919.41
2023-08-16T07:23:08.321Z,99940.38
2023-08-16T07:25:35.644Z,99948.56
2023-08-16T07:28:02.250Z,99945.19
2023-08-16T07:30:29.352Z,99928.47
2023-08-16T07:32:56.024Z,99942.00
2023-08-16T07:35:23.386Z,99956.41
2023-08-16T07:37:49.738Z,99958.25
2023-08-16T07:40:16.161Z,99957.38
2023-08-16T07:42:42.548Z,99956.91
2023-08-16T07:45:09.275Z,99957.72
2023-08-16T07:47:35.912Z,99961.41
2023-08-16T07:50:02.330Z,99971.13
2023-08-16T07:52:28.752Z,99971.28
2023-08-16T07:54:57.149Z,99977.78
2023-08-16T07:57:23.838Z,99973.09
2023-08-16T07:59:50.175Z,99962.06
2023-08-16T08:02:16.625Z,99956.88
2023-08-16T08:04:43.137Z,99977.25
2023-08-16T08:07:09.576Z,99979.09
2023-08-16T08:09:36.008Z,99974.25
2023-08-16T08:12:02.373Z,99976.25
2023-08-16T08:14:29.232Z,99972.25
2023-08-16T08:16:56.778Z,99972.56
2023-08-16T08:19:23.379Z,99946.84
2023-08-16T08:21:49.777Z,99978.44
2023-08-16T08:24:16.651Z,99991.81
2023-08-16T08:26:44.178Z,99993.69
2023-08-16T08:29:10.544Z,100007.59
2023-08-16T08:31:36.967Z,100007.41
2023-08-16T08:34:03.502Z,100014.09
2023-08-16T08:36:29.917Z,100003.19
2023-08-16T08:38:56.363Z,100011.06
2023-08-16T08:41:30.980Z,100006.38
2023-08-16T08:44:06.166Z,100021.81
2023-08-16T08:46:33.083Z,100013.09
2023-08-16T08:49:01.209Z,99995.00
2023-08-16T08:51:33.777Z,100001.53
2023-08-16T08:54:00.382Z,99996.38
2023-08-16T08:56:30.100Z,100009.44
2023-08-16T08:59:08.900Z,99996.00
2023-08-16T09:01:42.038Z,99984.44
2023-08-16T09:04:10.203Z,99989.28
2023-08-16T09:06:36.594Z,99985.44
2023-08-16T09:09:03.192Z,100011.56
2023-08-16T09:11:29.774Z,99996.66
2023-08-16T09:13:56.842Z,100004.31
2023-08-16T09:16:23.418Z,99990.22
2023-08-16T09:18:50.693Z,99989.88
2023-08-16T09:21:19.430Z,99993.34
2023-08-16T09:23:57.185Z,100008.78
2023-08-16T09:26:23.908Z,99999.84
2023-08-16T09:29:00.313Z,100002.59
2023-08-16T09:31:37.667Z,99997.31
2023-08-16T09:34:05.027Z,99987.44
2023-08-16T09:36:31.753Z,99998.38
2023-08-16T09:39:02.597Z,99993.25
2023-08-16T09:41:29.047Z,99991.59
2023-08-16T09:44:03.999Z,99983.25
2023-08-16T09:46:30.531Z,99981.13
2023-08-16T09:54:15.805Z,99993.03
2023-08-16T10:07:12.410Z,99994.00
2023-08-16T10:09:34.719Z,99970.09
2023-08-16T10:12:05.430Z,99977.66
2023-08-16T10:14:32.654Z,99970.84
2023-08-16T10:17:03.993Z,99968.16
2023-08-16T10:19:34.578Z,99966.53
2023-08-16T10:22:03.131Z,99966.22
2023-08-16T10:24:50.815Z,99964.38
2023-08-16T10:27:21.456Z,99962.38
2023-08-16T10:29:52.644Z,99967.56
2023-08-16T10:32:20.097Z,99964.41
2023-08-16T10:34:46.999Z,99968.84
2023-08-16T10:37:14.743Z,99950.03
2023-08-16T10:40:11.761Z,99957.03
2023-08-16T10:42:37.081Z,99945.72
2023-08-16T10:45:03.998Z,99964.88
2023-08-16T10:47:31.229Z,99966.59
2023-08-16T10:50:00.633Z,99971.25
2023-08-16T10:52:30.615Z,99965.22
2023-08-16T10:54:59.950Z,99963.00
2023-08-16T10:57:27.472Z,99954.63
2023-08-16T11:00:05.410Z,99958.81
2023-08-16T11:02:32.858Z,99956.81
2023-08-16T11:05:03.275Z,99951.16
2023-08-16T11:07:29.808Z,99942.53
2023-08-16T11:10:01.197Z,99942.69
2023-08-16T11:12:30.351Z,99925.09
2023-08-16T11:14:57.618Z,99918.09
2023-08-16T11:17:28.395Z,99915.94
2023-08-16T11:19:55.639Z,99926.97
2023-08-16T11:22:24.066Z,99915.31
2023-08-16T11:24:51.441Z,99933.22
2023-08-16T11:27:23.746Z,99926.34
2023-08-16T11:29:58.384Z,99928.16
2023-08-16T11:32:37.128Z,99924.56
2023-08-16T11:35:11.196Z,99927.47
2023-08-16T11:37:40.178Z,99920.00
2023-08-16T11:40:08.653Z,99916.75
2023-08-16T11:42:35.067Z,99910.06
2023-08-16T11:45:02.137Z,99920.41
2023-08-16T11:47:28.560Z,99916.81
2023-08-16T11:49:54.981Z,99912.00
2023-08-16T11:52:25.118Z,99915.03
2023-08-16T11:55:06.176Z,99907.63
2023-08-16T11:57:33.295Z,99923.72
2023-08-16T12:00:02.555Z,99918.72
2023-08-16T12:02:32.301Z,99911.88
2023-08-16T12:05:10.088Z,99903.59
2023-08-16T12:07:43.749Z,99890.47
2023-08-16T12:10:10.211Z,99899.94
2023-08-16T12:12:39.305Z,99913.44
2023-08-16T12:15:06.133Z,99895.91
2023-08-16T12:17:33.415Z,99903.03
2023-08-16T12:19:59.772Z,99890.53
2023-08-16T12:22:26.122Z,99891.47
2023-08-16T12:24:52.585Z,99882.03
2023-08-16T12:27:18.954Z,99882.28
2023-08-16T12:29:45.286Z,99879.13
2023-08-16T12:32:11.627Z,99883.59
2023-08-16T12:34:47.979Z,99873.53
2023-08-16T12:37:24.399Z,99856.59
2023-08-16T12:39:51.333Z,99864.00
2023-08-16T12:42:17.725Z,99865.28
2023-08-16T12:44:44.305Z,99859.41
2023-08-16T12:47:11.392Z,99848.75
2023-08-16T12:49:37.757Z,99852.63
2023-08-16T12:52:04.358Z,99853.13
2023-08-16T12:54:30.747Z,99850.31
2023-08-16T12:57:06.093Z,99837.91
2023-08-16T12:59:33.312Z,99840.94
2023-08-16T13:04:36.298Z,99839.22
2023-08-16T13:07:06.382Z,99833.25
2023-08-16T13:09:48.186Z,99827.94
2023-08-16T13:12:15.578Z,99826.44
2023-08-16T13:15:06.409Z,99837.44
2023-08-16T13:20:05.625Z,99846.63
2023-08-16T13:25:16.493Z,99824.47
2023-08-16T13:27:44.696Z,99830.16
2023-08-16T13:30:45.228Z,99821.03
2023-08-16T13:35:31.406Z,99836.03
2023-08-16T13:37:59.054Z,99840.59
2023-08-16T13:40:34.000Z,99834.78
2023-08-16T13:43:16.112Z,99842.91
2023-08-16T13:45:46.028Z,99848.94
2023-08-16T13:48:12.852Z,99820.88
2023-08-16T13:50:40.372Z,99832.47
2023-08-16T13:53:06.825Z,99820.63
2023-08-16T13:55:33.391Z,99831.19
2023-08-16T13:57:59.741Z,99827.56
2023-08-16T14:00:26.404Z,99828.53
2023-08-16T14:02:53.559Z,99818.34
2023-08-16T14:05:20.781Z,99828.38
2023-08-16T14:07:47.696Z,99813.78
2023-08-16T14:10:14.529Z,99801.25
2023-08-16T14:12:43.856Z,99806.31
2023-08-16T14:15:10.653Z,99811.28
2023-08-16T14:17:37.159Z,99804.88
2023-08-16T14:20:05.424Z,99804.88
2023-08-16T14:22:31.853Z,99779.13
2023-08-16T14:24:58.243Z,99776.28
2023-08-16T14:27:24.802Z,99786.09
2023-08-16T14:29:51.311Z,99784.59
2023-08-16T14:32:17.699Z,99784.44
2023-08-16T14:34:44.091Z,99778.88
2023-08-16T14:37:10.526Z,99780.25
2023-08-16T14:39:36.875Z,99776.75
2023-08-16T14:42:03.448Z,99786.97
2023-08-16T14:44:29.885Z,99773.84
2023-08-16T14:46:56.424Z,99778.84
2023-08-16T14:49:22.858Z,99777.78
2023-08-16T14:51:49.311Z,99769.91
2023-08-16T14:54:15.674Z,99758.06
2023-08-16T14:56:43.877Z,99773.41
2023-08-16T14:59:11.187Z,99776.75
2023-08-16T15:01:38.318Z,99783.00
2023-08-16T15:04:05.519Z,99765.59
2023-08-16T15:06:31.959Z,99778.72
2023-08-16T15:09:05.051Z,99782.66
2023-08-16T15:11:32.476Z,99767.69
2023-08-16T15:13:59.227Z,99770.63
2023-08-16T15:16:26.254Z,99782.69
2023-08-16T15:18:52.827Z,99780.44
2023-08-16T15:21:19.198Z,99754.25
2023-08-16T15:23:47.065Z,99776.09
2023-08-16T15:26:13.520Z,99774.44
2023-08-16T15:28:40.019Z,99765.47
2023-08-16T15:31:06.685Z,99762.38
2023-08-16T15:33:33.912Z,99772.97
2023-08-16T15:36:00.284Z,99769.06
2023-08-16T15:38:42.262Z,99762.19
2023-08-16T15:41:08.740Z,99767.00
2023-08-16T15:43:37.673Z,99738.91
2023-08-16T15:46:05.355Z,99751.63
2023-08-16T15:48:31.891Z,99744.53
2023-08-16T15:50:58.275Z,99741.03
2023-08-16T15:53:24.960Z,99728.31
2023-08-16T15:55:55.539Z,99730.41
2023-08-16T15:58:23.475Z,99714.00
2023-08-16T16:00:54.512Z,99720.63
2023-08-16T16:03:21.456Z,99730.78
2023-08-16T16:05:48.342Z,99729.78
2023-08-16T16:08:14.815Z,99708.16
2023-08-16T16:10:41.226Z,99696.53
2023-08-16T16:13:07.924Z,99705.88
2023-08-16T16:15:34.506Z,99707.34
2023-08-16T16:18:00.973Z,99703.78
2023-08-16T16:20:28.029Z,99716.72
2023-08-16T16:22:54.554Z,99717.94
2023-08-16T16:25:21.456Z,99719.22
2023-08-16T16:27:47.942Z,99716.13
2023-08-16T16:30:14.388Z,99718.19
2023-08-16T16:32:41.585Z,99697.25
2023-08-16T16:35:08.174Z,99711.13
2023-08-16T16:37:34.580Z,99724.41
2023-08-16T16:40:00.941Z,99713.03
2023-08-16T16:42:27.553Z,99720.69
2023-08-16T16:44:54.289Z,99727.16
2023-08-16T16:47:20.722Z,99739.84
2023-08-16T16:49:47.260Z,99722.63
2023-08-16T16:52:13.597Z,99731.53
2023-08-16T16:54:39.976Z,99731.13
2023-08-16T16:57:06.337Z,99729.47
2023-08-16T16:59:32.762Z,99721.78
2023-08-16T17:01:59.156Z,99722.63
2023-08-16T17:04:25.612Z,99724.06
2023-08-16T17:06:56.229Z,99722.41
2023-08-16T17:09:22.578Z,99712.03
2023-08-16T17:11:48.945Z,99711.41
2023-08-16T17:14:15.359Z,99708.09
2023-08-16T17:16:41.733Z,99708.09
2023-08-16T17:19:08.238Z,99704.78
2023-08-16T17:21:34.707Z,99710.19
2023-08-16T17:24:01.092Z,99700.00
2023-08-16T17:26:27.506Z,99699.38
2023-08-16T17:28:53.894Z,99701.47
2023-08-16T17:31:20.289Z,99716.03
2023-08-16T17:33:46.787Z,99720.19
2023-08-16T17:36:14.451Z,99725.38
2023-08-16T17:38:41.493Z,99733.72
2023-08-16T17:41:08.579Z,99735.16
2023-08-16T17:43:35.615Z,99735.53
2023-08-16T17:46:02.077Z,99741.34
2023-08-16T17:48:28.848Z,99745.53
2023-08-16T17:50:55.191Z,99757.16
2023-08-16T17:53:22.116Z,99803.69
2023-08-16T17:55:49.116Z,99850.19
2023-08-16T17:58:18.510Z,99866.97
2023-08-16T18:00:44.894Z,99893.06
2023-08-16T18:03:11.316Z,99915.56
2023-08-16T18:05:37.724Z,99878.63
2023-08-16T18:08:04.484Z,99845.63
2023-08-16T18:10:30.915Z,99850.69
2023-08-16T18:12:57.318Z,99850.38
2023-08-16T18:15:23.823Z,99855.75
2023-08-16T18:17:51.355Z,99831.31
2023-08-16T18:20:17.711Z,99817.88
2023-08-16T18:22:44.093Z,99806.34
2023-08-16T18:25:10.551Z,99794.94
2023-08-16T18:27:37.025Z,99770.97
2023-08-16T18:30:04.033Z,99700.56
2023-08-16T18:32:30.544Z,99752.09
2023-08-16T18:34:56.994Z,99756.97
2023-08-16T18:37:23.653Z,99784.94
2023-08-16T18:39:50.226Z,99777.72
2023-08-16T18:42:16.618Z,99791.34
2023-08-16T18:44:43.025Z,99779.38
2023-08-16T18:47:09.855Z,99782.31
2023-08-16T18:49:36.257Z,99821.78
2023-08-16T18:52:02.754Z,99828.47
2023-08-16T18:54:29.091Z,99830.09
2023-08-16T18:56:55.443Z,99806.59
2023-08-16T18:59:21.861Z,99806.78
2023-08-16T19:01:48.312Z,99815.84
2023-08-16T19:04:14.746Z,99857.44
2023-08-16T19:06:41.183Z,99876.47
2023-08-16T19:09:07.544Z,99877.03
2023-08-16T19:11:34.094Z,99881.53
2023-08-16T19:14:00.469Z,99866.44
2023-08-16T19:16:26.871Z,99861.56
2023-08-16T19:18:56.824Z,99891.25
2023-08-16T19:21:23.334Z,99923.66
2023-08-16T19:23:49.720Z,99942.28
2023-08-16T19:26:16.170Z,99952.19
2023-08-16T19:28:42.514Z,99951.53
2023-08-16T19:31:09.008Z,99916.53
2023-08-16T19:33:35.418Z,99891.63
2023-08-16T19:36:02.847Z,99890.88
2023-08-16T19:38:29.294Z,99858.81
2023-08-16T19:40:55.726Z,99880.41
2023-08-16T19:43:22.155Z,99880.47
2023-08-16T19:45:51.747Z,99886.03
2023-08-16T19:48:18.239Z,99903.13
2023-08-16T19:50:45.462Z,99896.88
2023-08-16T19:53:11.948Z,99883.97
2023-08-16T19:55:38.586Z,99875.78
2023-08-16T19:58:04.991Z,99884.69
2023-08-16T20:00:31.494Z,99886.31
2023-08-16T20:02:58.096Z,99878.34
2023-08-16T20:05:24.768Z,99899.78
2023-08-16T20:07:51.129Z,99886.44
2023-08-16T20:10:18.330Z,99883.41
2023-08-16T20:12:46.010Z,99887.53
2023-08-16T20:15:14.111Z,99868.47
2023-08-16T20:17:40.660Z,99880.47
2023-08-16T20:20:08.210Z,99880.88
2023-08-16T20:22:37.685Z,99879.53
2023-08-16T20:25:05.866Z,99869.63
2023-08-16T20:27:32.436Z,99844.41
2023-08-16T20:29:59.031Z,99847.28
2023-08-16T20:32:25.446Z,99865.78
2023-08-16T20:34:56.939Z,99874.97
2023-08-16T20:37:24.341Z,99868.28
2023-08-16T20:39:52.061Z,99850.22
2023-08-16T20:42:36.698Z,99852.50
2023-08-16T20:45:05.314Z,99844.66
2023-08-16T20:47:32.164Z,99846.13
2023-08-16T20:49:59.532Z,99841.78
2023-08-16T20:52:26.080Z,99841.91
2023-08-16T20:54:53.814Z,99839.22
2023-08-16T20:57:20.334Z,99843.22
2023-08-16T20:59:47.788Z,99850.22
2023-08-16T21:02:15.433Z,99851.78
2023-08-16T21:04:42.476Z,99860.84
2023-08-16T21:07:09.290Z,99857.00
2023-08-16T21:09:36.021Z,99849.84
2023-08-16T21:12:02.494Z,99840.66
2023-08-16T21:14:28.861Z,99827.44
2023-08-16T21:16:55.993Z,99818.25
2023-08-16T21:19:23.255Z,99814.00
2023-08-16T21:21:49.735Z,99805.84
2023-08-16T21:24:16.316Z,99807.16
2023-08-16T21:26:43.445Z,99795.31
2023-08-16T21:29:11.799Z,99808.34
2023-08-16T21:31:39.209Z,99788.78
2023-08-16T21:34:10.228Z,99783.41
2023-08-16T21:36:37.154Z,99777.03
2023-08-16T21:39:06.348Z,99765.69
2023-08-16T21:41:33.727Z,99786.06
2023-08-16T21:44:00.993Z,99792.47
2023-08-16T21:46:27.873Z,99799.50
2023-08-16T21:48:54.577Z,99816.06
2023-08-16T21:51:21.634Z,99814.91
2023-08-16T21:53:48.329Z,99808.56
2023-08-16T21:56:17.162Z,99807.91
2023-08-16T21:58:43.668Z,99798.72
2023-08-16T22:01:10.597Z,99796.94
2023-08-16T22:03:37.286Z,99807.97
2023-08-16T22:06:04.576Z,99796.94
2023-08-16T22:08:31.151Z,99818.25
2023-08-16T22:10:57.808Z,99817.78
2023-08-16T22:13:25.187Z,99807.97
2023-08-16T22:15:51.738Z,99798.81
2023-08-16T22:18:19.240Z,99800.34
2023-08-16T22:20:56.405Z,99788.19
2023-08-16T22:23:27.456Z,99823.66
2023-08-16T22:25:54.422Z,99825.19
2023-08-16T22:28:20.814Z,99831.00
2023-08-16T22:30:47.263Z,99835.69
2023-08-16T22:33:13.713Z,99822.47
2023-08-16T22:35:40.084Z,99819.81
2023-08-16T22:38:06.490Z,99828.19
2023-08-16T22:40:32.873Z,99797.25
2023-08-16T22:42:59.287Z,99805.94
2023-08-16T22:45:25.680Z,99804.63
2023-08-16T22:47:52.162Z,99801.47
2023-08-16T22:50:19.491Z,99794.41
2023-08-16T22:52:45.928Z,99792.50
2023-08-16T22:55:12.366Z,99780.63
2023-08-16T22:57:38.812Z,99779.22
2023-08-16T23:00:06.039Z,99781.75
2023-08-16T23:02:32.414Z,99779.84
2023-08-16T23:04:58.831Z,99776.66
2023-08-16T23:07:25.392Z,99778.19
2023-08-16T23:09:52.525Z,99778.19
2023-08-16T23:12:18.899Z,99792.72
2023-08-16T23:14:45.329Z,99763.50
2023-08-16T23:17:11.729Z,99784.72
2023-08-16T23:19:38.191Z,99787.94
2023-08-16T23:22:04.653Z,99778.09
2023-08-16T23:24:31.204Z,99779.22
2023-08-16T23:26:57.681Z,99776.91
2023-08-16T23:29:24.219Z,99769.28
2023-08-16T23:31:50.692Z,99777.06
2023-08-16T23:34:17.208Z,99789.00
2023-08-16T23:36:43.587Z,99787.66
2023-08-16T23:39:10.078Z,99790.19
2023-08-16T23:41:36.437Z,99781.63
2023-08-16T23:44:02.808Z,99796.38
2023-08-16T23:46:29.225Z,99796.03
2023-08-16T23:48:55.598Z,99792.34
2023-08-16T23:51:22.068Z,99785.00
2023-08-16T23:53:48.467Z,99790.47
2023-08-16T23:56:14.843Z,99789.13
2023-08-16T23:58:42.362Z,99778.88
